Cottonwood, Utah
Current Conditions -  °F | °C
As of 11:53 PM on Monday 20 Oct 2014 (Local Time) from KSLC Reporting Station
Few Clouds Few Clouds  
Wind Chill: 62°   Ceiling: Unl
Heat Index: 62°   Visibility: 10mi
Dew Point: 41°   Wind: 12mph
Humidity: 46%   Direction: 140°SE
Pressure: 29.9"   Gusts: NA
Location:  40.6222°N, 111.808°W
Report Text: KSLC 210553Z 14010KT 10SM FEW090 17/05 A2990 RMK AO2 SLP081 T01670050 10239 20156 58001
Loading
Personal Weather Stations






























Interactive Weather Map
Tropical Storm Tracking
New forecast layout! Learn more

10-Day Weather Forecast

Advertisements
Track Severe Weather on mobile